createdAt,value
2022-11-06T00:01:08.709Z,8.09
2022-11-06T00:03:30.266Z,8.34
2022-11-06T00:06:10.298Z,8.19
2022-11-06T00:08:39.092Z,8.04
2022-11-06T00:11:01.158Z,8.09
2022-11-06T00:13:22.963Z,8.17
2022-11-06T00:15:44.460Z,8.45
2022-11-06T00:18:05.976Z,8.29
2022-11-06T00:20:27.482Z,8.38
2022-11-06T00:22:49.012Z,8.34
2022-11-06T00:25:11.110Z,8.41
2022-11-06T00:27:36.199Z,8.42
2022-11-06T00:29:57.670Z,8.13
2022-11-06T00:32:19.167Z,8.12
2022-11-06T00:34:40.627Z,8.28
2022-11-06T00:37:02.139Z,8.36
2022-11-06T00:39:23.728Z,8.46
2022-11-06T00:41:45.206Z,8.40
2022-11-06T00:44:06.667Z,8.33
2022-11-06T00:46:28.694Z,8.36
2022-11-06T00:48:50.682Z,8.50
2022-11-06T00:51:18.378Z,8.63
2022-11-06T00:53:40.566Z,8.62
2022-11-06T00:56:11.117Z,8.63
2022-11-06T00:58:32.733Z,8.50
2022-11-06T01:00:54.208Z,8.58
2022-11-06T01:03:15.691Z,8.30
2022-11-06T01:05:37.166Z,8.55
2022-11-06T01:07:58.645Z,8.61
2022-11-06T01:10:20.151Z,8.72
2022-11-06T01:12:41.870Z,8.86
2022-11-06T01:15:03.601Z,8.87
2022-11-06T01:17:25.234Z,8.98
2022-11-06T01:19:46.964Z,8.94
2022-11-06T01:22:08.663Z,9.03
2022-11-06T01:24:30.640Z,8.84
2022-11-06T01:27:24.254Z,8.64
2022-11-06T01:29:34.622Z,8.45
2022-11-06T01:31:56.113Z,8.45
2022-11-06T01:34:19.594Z,8.35
2022-11-06T01:36:41.187Z,8.12
2022-11-06T01:39:05.308Z,8.17
2022-11-06T01:41:32.974Z,8.28
2022-11-06T01:43:57.698Z,8.13
2022-11-06T01:46:20.964Z,8.37
2022-11-06T01:48:47.530Z,8.43
2022-11-06T01:51:09.289Z,8.48
2022-11-06T01:53:30.992Z,8.48
2022-11-06T01:55:58.494Z,8.37
2022-11-06T01:58:22.624Z,8.37
2022-11-06T02:00:44.779Z,8.43
2022-11-06T02:03:07.054Z,8.49
2022-11-06T02:05:28.958Z,8.56
2022-11-06T02:07:51.671Z,8.55
2022-11-06T02:10:13.227Z,8.56
2022-11-06T02:13:10.175Z,8.50
2022-11-06T02:15:39.185Z,8.53
2022-11-06T02:18:18.959Z,8.40
2022-11-06T02:20:46.466Z,8.30
2022-11-06T02:23:29.654Z,7.98
2022-11-06T02:26:35.755Z,7.96
2022-11-06T02:29:18.758Z,7.81
2022-11-06T02:31:42.872Z,7.60
2022-11-06T02:34:12.211Z,7.46
2022-11-06T02:36:37.757Z,7.59
2022-11-06T02:39:03.256Z,7.72
2022-11-06T02:41:30.323Z,7.80
2022-11-06T02:43:58.056Z,7.85
2022-11-06T02:46:36.672Z,7.76
2022-11-06T02:49:43.068Z,7.82
2022-11-06T02:52:16.253Z,8.12
2022-11-06T02:54:43.183Z,8.25
2022-11-06T02:57:10.324Z,8.43
2022-11-06T02:59:46.965Z,8.56
2022-11-06T03:02:14.716Z,8.43
2022-11-06T03:04:55.477Z,8.62
2022-11-06T03:07:23.575Z,8.70
2022-11-06T03:09:45.600Z,8.94
2022-11-06T03:12:19.290Z,8.96
2022-11-06T03:15:06.271Z,8.75
2022-11-06T03:17:39.214Z,8.53
2022-11-06T03:20:31.511Z,8.58
2022-11-06T03:23:02.990Z,8.72
2022-11-06T03:25:29.941Z,8.77
2022-11-06T03:28:10.392Z,8.95
2022-11-06T03:30:41.875Z,9.06
2022-11-06T03:33:13.818Z,9.16
2022-11-06T03:35:42.909Z,9.29
2022-11-06T03:38:18.192Z,9.39
2022-11-06T03:40:45.304Z,9.39
2022-11-06T03:43:08.913Z,9.38
2022-11-06T03:45:32.959Z,9.36
2022-11-06T03:48:15.157Z,9.27
2022-11-06T03:50:43.132Z,9.20
2022-11-06T03:53:48.299Z,9.18
2022-11-06T03:56:17.338Z,9.12
2022-11-06T03:58:44.325Z,8.85
2022-11-06T04:01:08.683Z,8.77
2022-11-06T04:03:37.346Z,8.75
2022-11-06T04:06:05.596Z,8.77
2022-11-06T04:08:47.340Z,8.70
2022-11-06T04:11:30.967Z,8.65
2022-11-06T04:14:02.935Z,8.79
2022-11-06T04:16:27.410Z,8.73
2022-11-06T04:18:48.883Z,8.76
2022-11-06T04:21:25.831Z,8.78
2022-11-06T04:24:17.777Z,8.69
2022-11-06T04:26:53.581Z,8.83
2022-11-06T04:29:38.106Z,8.69
2022-11-06T04:32:42.164Z,8.57
2022-11-06T04:35:22.264Z,8.56
2022-11-06T04:38:00.658Z,8.62
2022-11-06T04:40:27.817Z,8.58
2022-11-06T04:42:58.395Z,8.52
2022-11-06T04:45:31.641Z,8.43
2022-11-06T04:47:54.924Z,8.29
2022-11-06T04:50:20.470Z,8.36
2022-11-06T04:52:43.559Z,8.57
2022-11-06T04:55:05.602Z,8.59
2022-11-06T04:57:27.289Z,8.62
2022-11-06T04:59:48.976Z,8.53
2022-11-06T05:02:11.300Z,8.50
2022-11-06T05:04:33.690Z,8.65
2022-11-06T05:06:55.291Z,8.60
2022-11-06T05:09:17.054Z,8.47
2022-11-06T05:11:38.530Z,8.36
2022-11-06T05:14:00.073Z,8.48
2022-11-06T05:16:21.628Z,8.48
2022-11-06T05:18:43.121Z,8.66
2022-11-06T05:21:23.240Z,8.65
2022-11-06T05:23:44.724Z,8.64
2022-11-06T05:26:07.508Z,8.51
2022-11-06T05:28:29.010Z,8.52
2022-11-06T05:30:50.480Z,8.60
2022-11-06T05:33:11.952Z,8.67
2022-11-06T05:35:33.436Z,8.58
2022-11-06T05:38:02.322Z,8.44
2022-11-06T05:40:23.750Z,8.59
2022-11-06T05:42:45.561Z,8.32
2022-11-06T05:45:07.979Z,8.39
2022-11-06T05:47:29.458Z,8.52
2022-11-06T05:49:51.180Z,8.48
2022-11-06T05:52:12.706Z,8.62
2022-11-06T05:54:34.196Z,8.51
2022-11-06T05:56:55.647Z,8.50
2022-11-06T05:59:17.158Z,8.54
2022-11-06T06:01:38.725Z,8.53
2022-11-06T06:04:00.365Z,8.70
2022-11-06T06:06:21.898Z,8.62
2022-11-06T06:08:43.386Z,8.65
2022-11-06T06:11:08.256Z,8.71
2022-11-06T06:13:29.748Z,8.59
2022-11-06T06:15:51.206Z,8.66
2022-11-06T06:18:13.639Z,8.68
2022-11-06T06:20:35.854Z,8.60
2022-11-06T06:22:58.751Z,8.73
2022-11-06T06:25:22.971Z,8.60
2022-11-06T06:27:44.736Z,8.62
2022-11-06T06:30:07.101Z,8.79
2022-11-06T06:32:28.581Z,8.97
2022-11-06T06:34:50.066Z,8.80
2022-11-06T06:37:12.786Z,8.78
2022-11-06T06:39:35.820Z,8.83
2022-11-06T06:41:57.280Z,8.84
2022-11-06T06:44:18.769Z,8.93
2022-11-06T06:46:40.271Z,8.97
2022-11-06T06:49:01.750Z,9.06
2022-11-06T06:51:24.120Z,9.10
2022-11-06T06:53:45.810Z,9.13
2022-11-06T06:56:07.440Z,9.14
2022-11-06T06:58:29.896Z,9.12
2022-11-06T07:00:51.448Z,8.93
2022-11-06T07:03:13.106Z,8.80
2022-11-06T07:05:34.586Z,8.82
2022-11-06T07:07:56.821Z,8.98
2022-11-06T07:10:18.728Z,8.83
2022-11-06T07:12:40.294Z,8.78
2022-11-06T07:15:01.805Z,8.87
2022-11-06T07:17:23.306Z,8.99
2022-11-06T07:19:44.809Z,8.99
2022-11-06T07:22:06.261Z,8.93
2022-11-06T07:24:27.803Z,9.04
2022-11-06T07:26:49.877Z,8.91
2022-11-06T07:29:11.439Z,8.74
2022-11-06T07:31:32.885Z,8.51
2022-11-06T07:33:54.378Z,8.66
2022-11-06T07:36:15.951Z,8.60
2022-11-06T07:38:39.076Z,8.55
2022-11-06T07:41:14.726Z,8.55
2022-11-06T07:43:36.983Z,8.68
2022-11-06T07:46:02.998Z,8.53
2022-11-06T07:48:24.477Z,8.45
2022-11-06T07:50:45.946Z,8.58
2022-11-06T07:53:07.997Z,8.48
2022-11-06T07:55:29.534Z,8.43
2022-11-06T07:57:51.032Z,8.43
2022-11-06T08:00:13.451Z,8.35
2022-11-06T08:02:35.152Z,8.56
2022-11-06T08:04:56.722Z,8.64
2022-11-06T08:07:18.183Z,8.61
2022-11-06T08:09:39.657Z,8.61
2022-11-06T08:12:01.880Z,8.77
2022-11-06T08:14:23.614Z,8.79
2022-11-06T08:16:45.098Z,8.87
2022-11-06T08:19:06.703Z,8.92
2022-11-06T08:21:28.344Z,8.87
2022-11-06T08:23:49.827Z,8.93
2022-11-06T08:26:11.590Z,8.98
2022-11-06T08:28:33.191Z,9.00
2022-11-06T08:30:54.995Z,9.03
2022-11-06T08:33:16.529Z,9.00
2022-11-06T08:35:38.298Z,8.90
2022-11-06T08:38:00.086Z,9.02
2022-11-06T08:40:23.415Z,9.04
2022-11-06T08:42:48.143Z,9.22
2022-11-06T08:45:10.045Z,9.18
2022-11-06T08:47:31.616Z,9.10
2022-11-06T08:49:53.150Z,9.14
2022-11-06T08:52:14.717Z,9.08
2022-11-06T08:54:36.183Z,9.01
2022-11-06T08:56:58.449Z,8.87
2022-11-06T08:59:19.938Z,8.78
2022-11-06T09:01:41.598Z,8.91
2022-11-06T09:04:03.238Z,8.84
2022-11-06T09:06:25.487Z,8.85
2022-11-06T09:08:46.994Z,8.97
2022-11-06T09:11:08.544Z,9.06
2022-11-06T09:13:30.030Z,9.19
2022-11-06T09:15:51.544Z,8.98
2022-11-06T09:18:13.076Z,9.02
2022-11-06T09:20:34.830Z,9.05
2022-11-06T09:23:04.693Z,9.14
2022-11-06T09:25:26.156Z,9.12
2022-11-06T09:27:57.635Z,9.14
2022-11-06T09:30:23.074Z,9.30
2022-11-06T09:32:49.446Z,9.51
2022-11-06T09:35:10.926Z,9.37
2022-11-06T09:37:32.419Z,9.50
2022-11-06T09:39:53.879Z,9.39
2022-11-06T09:42:44.859Z,9.27
2022-11-06T09:45:23.091Z,9.41
2022-11-06T09:47:50.018Z,9.50
2022-11-06T09:50:19.808Z,9.44
2022-11-06T09:53:07.542Z,9.34
2022-11-06T09:55:34.653Z,9.21
2022-11-06T09:58:00.142Z,9.01
2022-11-06T10:00:22.076Z,9.10
2022-11-06T10:02:49.558Z,9.04
2022-11-06T10:05:11.175Z,8.97
2022-11-06T10:07:39.599Z,9.15
2022-11-06T10:10:04.080Z,9.20
2022-11-06T10:12:31.403Z,9.23
2022-11-06T10:14:59.709Z,9.55
2022-11-06T10:17:56.689Z,9.48
2022-11-06T10:20:26.901Z,9.53
2022-11-06T10:23:13.314Z,9.64
2022-11-06T10:26:00.642Z,9.61
2022-11-06T10:28:42.577Z,9.60
2022-11-06T10:31:26.201Z,9.82
2022-11-06T10:34:12.239Z,9.64
2022-11-06T10:36:46.060Z,9.72
2022-11-06T10:39:19.960Z,9.56
2022-11-06T10:41:47.043Z,9.65
2022-11-06T10:44:26.234Z,9.92
2022-11-06T10:46:53.489Z,9.88
2022-11-06T10:49:28.395Z,10.09
2022-11-06T10:52:14.670Z,9.95
2022-11-06T10:54:58.015Z,10.10
2022-11-06T10:57:45.067Z,10.18
2022-11-06T11:00:11.974Z,9.96
2022-11-06T11:02:42.622Z,10.22
2022-11-06T11:05:13.089Z,10.41
2022-11-06T11:07:35.042Z,10.27
2022-11-06T11:09:56.536Z,10.26
2022-11-06T11:12:28.166Z,10.40
2022-11-06T11:15:12.075Z,10.26
2022-11-06T11:17:33.550Z,10.12
2022-11-06T11:19:55.118Z,10.17
2022-11-06T11:22:16.540Z,10.34
2022-11-06T11:24:58.887Z,10.21
2022-11-06T11:27:20.402Z,10.22
2022-11-06T11:29:44.838Z,10.11
2022-11-06T11:32:07.188Z,10.11
2022-11-06T11:34:32.244Z,9.94
2022-11-06T11:37:06.238Z,10.14
2022-11-06T11:39:36.871Z,10.18
2022-11-06T11:42:31.949Z,10.16
2022-11-06T11:45:09.889Z,10.07
2022-11-06T11:47:31.406Z,10.08
2022-11-06T11:49:52.881Z,9.98
2022-11-06T11:52:19.941Z,10.09
2022-11-06T11:54:55.691Z,10.08
2022-11-06T11:57:24.960Z,10.07
2022-11-06T11:59:50.759Z,10.00
2022-11-06T12:02:30.159Z,9.93
2022-11-06T12:04:56.321Z,10.17
2022-11-06T12:07:27.111Z,10.32
2022-11-06T12:09:48.785Z,10.47
2022-11-06T12:12:23.765Z,10.60
2022-11-06T12:14:45.304Z,10.46
2022-11-06T12:17:21.683Z,10.54
2022-11-06T12:19:50.313Z,10.80
2022-11-06T12:22:41.890Z,10.80
2022-11-06T12:25:14.769Z,10.47
2022-11-06T12:27:43.808Z,10.59
2022-11-06T12:30:07.303Z,10.72
2022-11-06T12:32:53.100Z,10.73
2022-11-06T12:35:40.341Z,10.71
2022-11-06T12:38:24.428Z,10.65
2022-11-06T12:40:57.266Z,10.97
2022-11-06T12:43:40.943Z,11.02
2022-11-06T12:46:29.276Z,11.08
2022-11-06T12:49:21.833Z,11.26
2022-11-06T12:51:47.614Z,11.07
2022-11-06T12:54:41.280Z,11.08
2022-11-06T12:57:21.616Z,11.13
2022-11-06T13:00:00.022Z,11.14
2022-11-06T13:03:00.115Z,10.97
2022-11-06T13:05:46.783Z,10.99
2022-11-06T13:08:44.085Z,10.88
2022-11-06T13:11:45.226Z,10.89
2022-11-06T13:14:34.774Z,11.04
2022-11-06T13:17:11.195Z,11.22
2022-11-06T13:19:32.617Z,11.10
2022-11-06T13:22:24.761Z,10.84
2022-11-06T13:24:53.842Z,11.00
2022-11-06T13:27:28.356Z,11.03
2022-11-06T13:29:51.178Z,11.10
2022-11-06T13:32:17.693Z,11.21
2022-11-06T13:34:42.232Z,11.24
2022-11-06T13:37:12.501Z,11.30
2022-11-06T13:39:40.910Z,11.53
2022-11-06T13:42:05.330Z,11.59
2022-11-06T13:44:27.445Z,11.59
2022-11-06T13:46:54.435Z,11.56
2022-11-06T13:49:18.914Z,11.56
2022-11-06T13:52:03.190Z,12.01
2022-11-06T13:54:59.876Z,12.22
2022-11-06T13:57:40.070Z,11.87
2022-11-06T14:00:14.539Z,11.83
2022-11-06T14:03:10.123Z,11.96
2022-11-06T14:05:55.733Z,11.79
2022-11-06T14:08:28.216Z,12.09
2022-11-06T14:11:00.536Z,12.21
2022-11-06T14:13:28.019Z,12.35
2022-11-06T14:15:49.551Z,11.98
2022-11-06T14:18:22.261Z,11.85
2022-11-06T14:20:43.998Z,11.85
2022-11-06T14:23:30.201Z,11.82
2022-11-06T14:26:09.449Z,11.68
2022-11-06T14:28:33.857Z,11.80
2022-11-06T14:31:13.221Z,11.47
2022-11-06T14:33:42.131Z,11.46
2022-11-06T14:36:14.132Z,11.53
2022-11-06T14:38:36.121Z,11.50
2022-11-06T14:40:58.524Z,11.52
2022-11-06T14:43:22.174Z,11.73
2022-11-06T14:45:58.145Z,11.47
2022-11-06T14:48:50.581Z,11.63
2022-11-06T14:51:14.411Z,11.79
2022-11-06T14:53:40.105Z,11.91
2022-11-06T14:56:08.117Z,11.74
2022-11-06T14:58:36.298Z,11.41
2022-11-06T15:01:13.658Z,11.51
2022-11-06T15:03:44.431Z,11.43
2022-11-06T15:06:28.685Z,11.56
2022-11-06T15:08:50.113Z,11.37
2022-11-06T15:11:29.793Z,11.33
2022-11-06T15:13:51.281Z,11.33
2022-11-06T15:16:13.204Z,11.33
2022-11-06T15:18:36.397Z,11.07
2022-11-06T15:21:04.847Z,11.06
2022-11-06T15:23:38.993Z,10.88
2022-11-06T15:26:15.754Z,10.86
2022-11-06T15:29:06.645Z,10.66
2022-11-06T15:31:29.850Z,10.64
2022-11-06T15:33:56.024Z,10.73
2022-11-06T15:36:19.548Z,10.84
2022-11-06T15:38:42.835Z,10.86
2022-11-06T15:41:07.250Z,10.79
2022-11-06T15:43:35.709Z,10.73
2022-11-06T15:46:12.240Z,10.79
2022-11-06T15:48:33.949Z,10.70
2022-11-06T15:50:55.501Z,10.58
2022-11-06T15:53:22.129Z,10.65
2022-11-06T15:56:06.120Z,10.71
2022-11-06T15:58:35.922Z,10.65
2022-11-06T16:00:59.608Z,10.67
2022-11-06T16:03:26.905Z,10.60
2022-11-06T16:05:48.920Z,10.65
2022-11-06T16:08:13.216Z,10.72
2022-11-06T16:10:37.243Z,10.41
2022-11-06T16:12:59.047Z,10.43
2022-11-06T16:15:42.651Z,10.15
2022-11-06T16:18:06.237Z,9.82
2022-11-06T16:20:28.028Z,9.65
2022-11-06T16:22:49.519Z,9.66
2022-11-06T16:25:19.498Z,9.73
2022-11-06T16:27:41.939Z,9.65
2022-11-06T16:30:04.836Z,9.67
2022-11-06T16:32:29.695Z,9.80
2022-11-06T16:34:51.864Z,9.42
2022-11-06T16:37:16.081Z,9.67
2022-11-06T16:39:52.806Z,9.68
2022-11-06T16:42:35.969Z,9.85
2022-11-06T16:45:03.054Z,9.57
2022-11-06T16:47:24.644Z,9.72
2022-11-06T16:49:53.721Z,9.68
2022-11-06T16:52:18.560Z,9.86
2022-11-06T16:54:40.087Z,9.88
2022-11-06T16:57:13.390Z,9.65
2022-11-06T16:59:35.298Z,9.56
2022-11-06T17:01:56.923Z,9.53
2022-11-06T17:04:24.624Z,9.32
2022-11-06T17:06:46.572Z,9.15
2022-11-06T17:09:28.738Z,9.11
2022-11-06T17:11:55.169Z,9.22
2022-11-06T17:14:21.216Z,9.30
2022-11-06T17:16:49.696Z,9.08
2022-11-06T17:19:11.200Z,9.27
2022-11-06T17:21:32.715Z,9.39
2022-11-06T17:23:57.653Z,9.36
2022-11-06T17:26:28.545Z,9.24
2022-11-06T17:28:50.808Z,9.44
2022-11-06T17:31:14.712Z,9.26
2022-11-06T17:33:36.253Z,9.27
2022-11-06T17:35:57.817Z,9.18
2022-11-06T17:38:19.347Z,9.25
2022-11-06T17:40:41.972Z,9.25
2022-11-06T17:43:03.423Z,9.21
2022-11-06T17:45:25.066Z,9.29
2022-11-06T17:47:46.547Z,9.40
2022-11-06T17:50:08.686Z,9.24
2022-11-06T17:52:31.179Z,9.18
2022-11-06T17:54:52.752Z,9.38
2022-11-06T17:57:16.448Z,9.25
2022-11-06T17:59:41.284Z,9.30
2022-11-06T18:02:03.100Z,9.43
2022-11-06T18:04:26.830Z,9.41
2022-11-06T18:06:49.873Z,9.43
2022-11-06T18:09:11.943Z,9.44
2022-11-06T18:11:34.597Z,9.33
2022-11-06T18:13:56.320Z,9.35
2022-11-06T18:16:24.695Z,9.14
2022-11-06T18:18:46.456Z,9.21
2022-11-06T18:21:08.031Z,9.08
2022-11-06T18:23:29.802Z,8.97
2022-11-06T18:25:57.450Z,8.97
2022-11-06T18:28:19.749Z,9.11
2022-11-06T18:30:41.406Z,9.14
2022-11-06T18:33:02.896Z,9.03
2022-11-06T18:35:24.546Z,9.06
2022-11-06T18:37:46.086Z,9.12
2022-11-06T18:40:08.100Z,9.13
2022-11-06T18:42:29.586Z,9.25
2022-11-06T18:44:51.059Z,9.26
2022-11-06T18:47:12.517Z,9.28
2022-11-06T18:49:34.035Z,9.28
2022-11-06T18:51:55.514Z,9.26
2022-11-06T18:54:17.116Z,9.45
2022-11-06T18:56:39.109Z,9.29
2022-11-06T18:59:00.682Z,9.34
2022-11-06T19:01:25.934Z,9.30
2022-11-06T19:03:47.670Z,9.19
2022-11-06T19:06:16.123Z,9.19
2022-11-06T19:08:37.940Z,9.24
2022-11-06T19:11:02.183Z,9.17
2022-11-06T19:13:23.697Z,9.36
2022-11-06T19:15:45.446Z,9.45
2022-11-06T19:18:07.067Z,9.43
2022-11-06T19:20:28.599Z,9.33
2022-11-06T19:22:53.903Z,9.35
2022-11-06T19:25:15.481Z,9.33
2022-11-06T19:27:36.950Z,9.34
2022-11-06T19:29:58.411Z,9.31
2022-11-06T19:32:19.901Z,9.37
2022-11-06T19:34:41.773Z,9.30
2022-11-06T19:37:03.270Z,9.39
2022-11-06T19:39:24.805Z,9.36
2022-11-06T19:41:46.393Z,9.32
2022-11-06T19:44:09.699Z,9.20
2022-11-06T19:46:35.672Z,9.32
2022-11-06T19:48:57.963Z,9.38
2022-11-06T19:51:20.833Z,9.20
2022-11-06T19:53:42.863Z,9.42
2022-11-06T19:56:08.986Z,9.28
2022-11-06T19:58:30.584Z,9.18
2022-11-06T20:00:52.068Z,9.13
2022-11-06T20:03:13.875Z,9.26
2022-11-06T20:05:35.723Z,9.21
2022-11-06T20:07:57.189Z,9.21
2022-11-06T20:10:18.634Z,9.22
2022-11-06T20:12:40.164Z,9.18
2022-11-06T20:15:01.636Z,9.15
2022-11-06T20:17:23.148Z,9.34
2022-11-06T20:19:44.634Z,9.48
2022-11-06T20:22:06.108Z,9.47
2022-11-06T20:24:27.563Z,9.49
2022-11-06T20:26:49.154Z,9.28
2022-11-06T20:29:10.657Z,9.45
2022-11-06T20:31:33.267Z,9.35
2022-11-06T20:33:57.613Z,9.39
2022-11-06T20:36:23.220Z,9.37
2022-11-06T20:38:46.041Z,9.49
2022-11-06T20:41:07.770Z,9.51
2022-11-06T20:43:29.211Z,9.39
2022-11-06T20:45:50.931Z,9.39
2022-11-06T20:48:12.426Z,9.29
2022-11-06T20:50:34.139Z,9.09
2022-11-06T20:52:55.617Z,9.08
2022-11-06T20:55:17.089Z,9.01
2022-11-06T20:57:38.577Z,8.92
2022-11-06T21:00:00.039Z,8.92
2022-11-06T21:02:21.661Z,9.12
2022-11-06T21:04:43.360Z,9.23
2022-11-06T21:07:04.884Z,9.12
2022-11-06T21:09:26.361Z,9.23
2022-11-06T21:11:47.834Z,9.36
2022-11-06T21:14:09.336Z,9.41
2022-11-06T21:16:34.047Z,9.38
2022-11-06T21:18:56.157Z,9.40
2022-11-06T21:21:21.624Z,9.56
2022-11-06T21:23:43.398Z,9.36
2022-11-06T21:26:17.013Z,9.09
2022-11-06T21:28:41.071Z,9.26
2022-11-06T21:31:03.370Z,9.10
2022-11-06T21:33:25.195Z,9.08
2022-11-06T21:35:46.689Z,9.03
2022-11-06T21:38:08.645Z,8.79
2022-11-06T21:40:30.249Z,8.77
2022-11-06T21:42:51.744Z,8.71
2022-11-06T21:45:14.915Z,8.74
2022-11-06T21:47:36.788Z,8.73
2022-11-06T21:49:58.254Z,8.73
2022-11-06T21:52:40.211Z,8.59
2022-11-06T21:55:19.980Z,8.58
2022-11-06T21:57:41.483Z,8.42
2022-11-06T22:00:03.335Z,8.50
2022-11-06T22:02:24.942Z,8.56
2022-11-06T22:04:46.792Z,8.59
2022-11-06T22:07:08.283Z,8.48
2022-11-06T22:09:29.783Z,8.42
2022-11-06T22:11:51.280Z,8.51
2022-11-06T22:14:15.463Z,8.65
2022-11-06T22:16:39.738Z,8.79
2022-11-06T22:19:01.469Z,8.68
2022-11-06T22:21:26.013Z,8.80
2022-11-06T22:23:48.084Z,8.90
2022-11-06T22:26:13.338Z,8.91
2022-11-06T22:28:35.200Z,8.86
2022-11-06T22:30:56.773Z,8.96
2022-11-06T22:33:18.260Z,9.12
2022-11-06T22:35:39.723Z,9.23
2022-11-06T22:38:01.166Z,9.35
2022-11-06T22:40:22.650Z,9.56
2022-11-06T22:42:48.520Z,9.69
2022-11-06T22:45:11.154Z,9.79
2022-11-06T22:47:32.914Z,9.79
2022-11-06T22:49:54.387Z,9.72
2022-11-06T22:52:15.907Z,9.90
2022-11-06T22:54:37.380Z,10.06
2022-11-06T22:56:58.851Z,9.95
2022-11-06T22:59:21.611Z,10.06
2022-11-06T23:01:43.819Z,9.96
2022-11-06T23:04:08.924Z,9.97
2022-11-06T23:06:30.916Z,10.10
2022-11-06T23:08:52.747Z,10.11
2022-11-06T23:11:17.236Z,10.17
2022-11-06T23:13:39.837Z,10.27
2022-11-06T23:16:07.319Z,10.27
2022-11-06T23:18:28.864Z,10.43
2022-11-06T23:20:50.383Z,10.42
2022-11-06T23:23:12.024Z,10.30
2022-11-06T23:25:33.698Z,10.38
2022-11-06T23:27:55.715Z,10.48
2022-11-06T23:30:17.251Z,10.53
2022-11-06T23:32:39.886Z,10.50
2022-11-06T23:35:04.456Z,10.40
2022-11-06T23:37:26.713Z,10.45
2022-11-06T23:39:48.316Z,10.59
2022-11-06T23:42:13.381Z,10.54
2022-11-06T23:44:53.322Z,10.74
2022-11-06T23:47:14.811Z,10.81
2022-11-06T23:49:36.299Z,10.43
2022-11-06T23:51:58.075Z,10.39
2022-11-06T23:54:19.544Z,10.19
2022-11-06T23:56:41.208Z,10.13
2022-11-06T23:59:02.802Z,10.07
